Time;durP1;ratioP1;P1;durP2;ratioP2;P2;SDS_P1;SDS_P2;PMS_P1;PMS_P2;Temp;Humidity;BMP_temperature;BMP_pressure;BME280_temperature;BME280_humidity;BME280_pressure;Samples;Min_cycle;Max_cycle;Signal;HPM_P1;HPM_P2
2021/05/07 00:00:59;;;;;;;10.55;6.45;;;3.60;95.50;;;;;;5062803;28;20089;-74
2021/05/07 00:03:25;;;;;;;9.10;6.20;;;3.50;95.50;;;;;;5043275;28;20117;-75
2021/05/07 00:05:56;;;;;;;7.18;5.15;;;3.60;95.50;;;;;;5055776;28;20078;-76
2021/05/07 00:08:30;;;;;;;9.35;6.65;;;3.60;95.50;;;;;;5056950;28;20037;-75
2021/05/07 00:10:58;;;;;;;7.13;5.90;;;3.50;95.60;;;;;;5059018;28;20035;-75
2021/05/07 00:13:24;;;;;;;10.48;6.60;;;3.50;95.50;;;;;;5062964;28;20178;-76
2021/05/07 00:15:51;;;;;;;10.90;6.53;;;3.60;95.50;;;;;;5062591;28;20051;-76
2021/05/07 00:18:17;;;;;;;10.00;6.60;;;3.50;95.50;;;;;;5064914;28;20107;-74
2021/05/07 00:20:44;;;;;;;8.15;6.40;;;3.50;95.60;;;;;;5067332;28;20086;-75
2021/05/07 00:23:09;;;;;;;10.77;6.72;;;3.40;95.50;;;;;;5064309;28;20029;-75
2021/05/07 00:25:36;;;;;;;11.38;6.32;;;3.40;95.60;;;;;;5059369;28;20043;-73
2021/05/07 00:28:07;;;;;;;12.15;6.20;;;3.30;95.60;;;;;;5059748;28;20043;-76
2021/05/07 00:30:33;;;;;;;8.27;5.47;;;3.30;95.60;;;;;;5057038;28;20741;-76
2021/05/07 00:32:59;;;;;;;10.40;5.93;;;3.20;95.60;;;;;;5060391;28;20044;-73
2021/05/07 00:35:26;;;;;;;8.15;5.75;;;3.20;95.60;;;;;;5011109;28;20068;-76
2021/05/07 00:37:52;;;;;;;8.40;5.32;;;3.10;95.60;;;;;;5058619;28;20037;-76
2021/05/07 00:40:19;;;;;;;11.57;5.82;;;3.10;95.60;;;;;;5044743;28;20141;-75
2021/05/07 00:42:45;;;;;;;9.25;5.68;;;3.00;95.60;;;;;;5032418;28;20049;-76
2021/05/07 00:45:13;;;;;;;9.02;6.15;;;3.00;95.60;;;;;;5064766;28;20036;-75
2021/05/07 00:47:50;;;;;;;11.10;7.18;;;3.00;95.70;;;;;;5065468;28;20162;-76
2021/05/07 00:50:17;;;;;;;9.18;6.63;;;3.00;95.70;;;;;;5063416;28;20403;-74
2021/05/07 00:52:43;;;;;;;7.93;6.40;;;2.90;95.60;;;;;;5064370;28;20807;-74
2021/05/07 00:55:10;;;;;;;11.57;6.45;;;2.90;95.60;;;;;;5061483;28;20092;-75
2021/05/07 00:57:38;;;;;;;12.82;7.18;;;2.80;95.70;;;;;;5046493;28;20044;-75
2021/05/07 01:00:09;;;;;;;9.30;6.72;;;2.80;95.70;;;;;;5055148;28;20112;-75
2021/05/07 01:02:35;;;;;;;14.38;7.20;;;2.70;95.80;;;;;;5062152;28;20040;-76
2021/05/07 01:05:06;;;;;;;8.50;5.93;;;2.70;95.80;;;;;;5064686;28;20043;-76
2021/05/07 01:07:32;;;;;;;8.82;7.07;;;2.70;95.80;;;;;;5059471;28;20032;-74
2021/05/07 01:10:00;;;;;;;9.32;7.13;;;2.60;95.80;;;;;;5053867;28;20044;-75
2021/05/07 01:12:28;;;;;;;10.35;6.40;;;2.60;95.80;;;;;;5061231;28;20030;-74
2021/05/07 01:15:09;;;;;;;10.18;6.50;;;2.60;95.80;;;;;;5059376;28;20610;-75
2021/05/07 01:17:38;;;;;;;10.75;6.68;;;2.50;95.80;;;;;;5061034;28;20091;-73
2021/05/07 01:20:12;;;;;;;10.82;6.82;;;2.50;95.80;;;;;;5065137;28;20040;-76
2021/05/07 01:22:42;;;;;;;9.50;5.93;;;2.50;95.90;;;;;;5047232;28;20048;-74
2021/05/07 01:25:09;;;;;;;7.55;5.68;;;2.50;95.90;;;;;;5062218;28;20411;-75
2021/05/07 01:27:39;;;;;;;6.97;5.45;;;2.40;95.80;;;;;;5057750;28;20040;-75
2021/05/07 01:30:38;;;;;;;9.50;6.00;;;2.50;95.90;;;;;;5055672;28;20036;-75
2021/05/07 01:33:05;;;;;;;8.10;5.57;;;2.40;95.90;;;;;;5055054;28;20128;-76
2021/05/07 01:35:33;;;;;;;8.20;5.00;;;2.30;95.80;;;;;;5035690;28;20041;-75
2021/05/07 01:38:02;;;;;;;7.07;5.15;;;2.30;95.80;;;;;;5058092;28;20044;-75
2021/05/07 01:40:31;;;;;;;7.65;6.07;;;2.30;95.80;;;;;;5053411;28;20493;-72
2021/05/07 01:42:57;;;;;;;9.13;5.20;;;2.20;95.80;;;;;;5030128;28;20523;-75
2021/05/07 01:45:26;;;;;;;13.05;5.82;;;2.20;95.80;;;;;;5051872;28;20063;-75
2021/05/07 01:47:53;;;;;;;8.00;5.10;;;2.20;95.80;;;;;;5057497;28;20578;-75
2021/05/07 01:50:24;;;;;;;6.88;5.05;;;2.10;95.80;;;;;;5052062;28;20401;-75
2021/05/07 01:52:51;;;;;;;10.57;6.30;;;2.10;95.80;;;;;;5055134;28;20676;-75
2021/05/07 01:55:25;;;;;;;8.93;6.50;;;2.10;95.80;;;;;;5052960;28;20036;-77
2021/05/07 01:57:51;;;;;;;7.03;5.45;;;2.10;95.90;;;;;;5055905;28;20040;-78
2021/05/07 02:00:19;;;;;;;7.60;5.03;;;2.00;95.90;;;;;;5059899;28;20047;-74
2021/05/07 02:02:46;;;;;;;7.25;5.00;;;2.00;95.90;;;;;;5047664;28;20040;-76
2021/05/07 02:05:14;;;;;;;8.75;5.15;;;2.00;96.00;;;;;;5057130;28;20040;-76
2021/05/07 02:07:42;;;;;;;7.57;5.50;;;2.00;96.00;;;;;;5058802;28;20047;-75
2021/05/07 02:10:10;;;;;;;8.93;5.65;;;1.90;96.00;;;;;;5058216;28;20102;-75
2021/05/07 02:12:36;;;;;;;9.38;5.32;;;2.10;96.10;;;;;;5057287;28;20044;-77
2021/05/07 02:15:08;;;;;;;5.25;4.40;;;2.00;96.10;;;;;;5068560;28;20120;-76
2021/05/07 02:17:34;;;;;;;11.97;5.20;;;2.00;96.10;;;;;;5056344;28;20171;-75
2021/05/07 02:20:00;;;;;;;10.27;6.38;;;1.90;96.00;;;;;;5051408;28;20104;-75
2021/05/07 02:22:26;;;;;;;8.13;5.22;;;1.90;96.30;;;;;;5051837;28;20036;-75
2021/05/07 02:24:52;;;;;;;9.98;5.80;;;1.90;96.10;;;;;;5069282;28;20028;-75
2021/05/07 02:27:18;;;;;;;8.35;5.45;;;1.90;96.10;;;;;;5066211;28;20063;-75
2021/05/07 02:29:44;;;;;;;7.60;5.20;;;1.90;96.20;;;;;;5045363;28;20028;-75
2021/05/07 02:32:09;;;;;;;7.78;5.35;;;1.80;96.20;;;;;;5060434;28;20025;-75
2021/05/07 02:34:35;;;;;;;7.18;4.93;;;1.90;96.20;;;;;;5040438;28;20143;-75
2021/05/07 02:37:01;;;;;;;6.43;4.55;;;1.90;96.20;;;;;;5062809;28;20146;-76
2021/05/07 02:39:27;;;;;;;8.20;5.22;;;1.80;96.30;;;;;;5055537;28;20044;-76
2021/05/07 02:41:52;;;;;;;9.38;6.03;;;1.90;96.30;;;;;;5057677;28;20060;-75
2021/05/07 02:44:18;;;;;;;10.45;5.88;;;1.80;96.30;;;;;;5058906;28;20028;-75
2021/05/07 02:46:45;;;;;;;7.03;4.70;;;1.90;96.30;;;;;;5053186;28;20040;-75
2021/05/07 02:49:10;;;;;;;6.97;4.70;;;1.80;96.30;;;;;;5059222;28;20040;-75
2021/05/07 02:51:36;;;;;;;8.32;5.72;;;1.80;96.30;;;;;;5064782;28;20141;-75
2021/05/07 02:54:03;;;;;;;6.20;4.75;;;1.80;96.30;;;;;;5062394;28;20030;-75
2021/05/07 02:56:29;;;;;;;7.07;4.63;;;1.80;96.30;;;;;;5059149;28;20600;-75
2021/05/07 02:58:55;;;;;;;8.25;5.45;;;1.70;96.30;;;;;;5055460;28;20063;-75
2021/05/07 03:01:23;;;;;;;12.43;6.05;;;1.70;96.40;;;;;;5031815;28;20040;-76
2021/05/07 03:03:49;;;;;;;7.97;5.47;;;1.70;96.40;;;;;;5063515;28;20036;-76
2021/05/07 03:06:17;;;;;;;7.90;5.07;;;1.70;96.70;;;;;;5064476;28;20033;-75
2021/05/07 03:08:43;;;;;;;7.60;4.97;;;1.70;96.40;;;;;;5066275;28;20055;-75
2021/05/07 03:11:09;;;;;;;9.40;6.25;;;1.60;96.40;;;;;;5055756;28;20040;-75
2021/05/07 03:13:35;;;;;;;7.43;5.53;;;1.60;96.40;;;;;;5064729;28;20070;-75
2021/05/07 03:16:03;;;;;;;6.15;4.63;;;1.60;96.40;;;;;;5055653;28;20032;-76
2021/05/07 03:18:30;;;;;;;12.43;5.63;;;1.50;96.40;;;;;;5038318;28;20119;-75
2021/05/07 03:20:56;;;;;;;8.13;5.32;;;1.50;96.40;;;;;;5057002;28;20455;-75
2021/05/07 03:23:22;;;;;;;8.82;5.70;;;1.50;96.40;;;;;;5039910;28;20658;-75
2021/05/07 03:25:50;;;;;;;7.25;5.43;;;1.50;96.40;;;;;;5045184;28;20032;-75
2021/05/07 03:28:15;;;;;;;9.05;6.28;;;1.50;96.40;;;;;;5024283;28;20045;-75
2021/05/07 03:30:41;;;;;;;8.63;6.63;;;1.50;96.40;;;;;;5057714;28;20032;-75
2021/05/07 03:33:07;;;;;;;9.00;6.88;;;1.50;96.40;;;;;;5059851;28;22771;-75
2021/05/07 03:35:34;;;;;;;8.27;6.40;;;1.50;96.40;;;;;;5062565;28;20479;-75
2021/05/07 03:38:01;;;;;;;10.43;7.28;;;1.50;96.40;;;;;;5018537;28;20066;-75
2021/05/07 03:40:27;;;;;;;12.05;7.65;;;1.50;96.40;;;;;;5054223;28;20115;-75
2021/05/07 03:42:53;;;;;;;12.68;7.50;;;1.50;96.40;;;;;;5024349;28;20487;-75
2021/05/07 03:45:19;;;;;;;14.02;7.78;;;1.50;96.50;;;;;;5060099;28;20025;-75
2021/05/07 03:47:45;;;;;;;11.20;7.47;;;1.60;96.50;;;;;;5056985;28;20163;-75
2021/05/07 03:50:12;;;;;;;11.38;6.90;;;1.50;96.50;;;;;;5043905;28;20028;-75
2021/05/07 03:52:40;;;;;;;11.02;7.88;;;1.60;96.50;;;;;;5062407;28;20044;-78
2021/05/07 03:55:09;;;;;;;10.15;6.63;;;1.50;96.50;;;;;;5062470;28;20040;-75
2021/05/07 03:57:35;;;;;;;11.07;7.47;;;1.50;96.60;;;;;;5067576;28;20141;-74
2021/05/07 04:00:01;;;;;;;14.20;8.13;;;1.60;96.60;;;;;;5072109;28;20108;-76
2021/05/07 04:02:27;;;;;;;14.57;8.23;;;1.50;96.50;;;;;;5066113;28;20109;-76
2021/05/07 04:04:54;;;;;;;12.13;8.13;;;1.60;96.60;;;;;;5064628;28;20060;-77
2021/05/07 04:07:21;;;;;;;16.23;9.13;;;1.60;96.60;;;;;;5057494;28;20032;-75
2021/05/07 04:09:55;;;;;;;12.27;7.90;;;1.60;96.60;;;;;;5041154;28;20044;-74
2021/05/07 04:14:59;;;;;;;10.73;8.18;;;1.50;96.60;;;;;;5065553;28;20037;-74
2021/05/07 04:17:25;;;;;;;12.52;8.25;;;1.50;96.60;;;;;;5042375;28;20029;-75
2021/05/07 04:19:50;;;;;;;13.82;8.88;;;1.50;96.70;;;;;;5062955;28;20036;-74
2021/05/07 04:22:16;;;;;;;13.75;8.35;;;1.50;96.70;;;;;;5068392;28;20032;-79
2021/05/07 04:24:43;;;;;;;15.57;9.68;;;1.50;96.80;;;;;;5066671;28;20037;-75
2021/05/07 04:27:10;;;;;;;16.65;9.32;;;1.60;96.90;;;;;;5052229;28;20548;-74
2021/05/07 04:29:36;;;;;;;14.75;8.52;;;1.70;97.00;;;;;;5062673;28;20036;-76
2021/05/07 04:32:01;;;;;;;12.63;8.85;;;1.80;97.00;;;;;;5063679;28;20112;-75
2021/05/07 04:34:27;;;;;;;14.48;8.35;;;1.80;97.00;;;;;;5071884;28;20036;-75
2021/05/07 04:36:53;;;;;;;15.43;8.73;;;1.90;97.00;;;;;;5065308;28;20040;-75
2021/05/07 04:39:20;;;;;;;14.52;7.93;;;2.00;97.00;;;;;;5062447;28;20040;-75
2021/05/07 04:41:46;;;;;;;17.25;9.77;;;2.00;97.00;;;;;;5070827;28;20028;-77
2021/05/07 04:44:12;;;;;;;14.40;8.90;;;2.20;97.10;;;;;;5062981;28;20035;-75
2021/05/07 04:46:38;;;;;;;11.98;8.43;;;2.10;97.00;;;;;;5059057;28;20079;-78
2021/05/07 04:49:04;;;;;;;16.40;9.02;;;2.20;97.00;;;;;;5045563;28;20408;-75
2021/05/07 04:51:30;;;;;;;12.68;7.75;;;2.20;97.00;;;;;;5064701;28;20042;-75
2021/05/07 04:53:58;;;;;;;12.70;7.97;;;2.30;97.10;;;;;;5058679;28;20534;-77
2021/05/07 04:56:24;;;;;;;11.93;7.10;;;2.30;97.10;;;;;;5045189;28;20518;-78
2021/05/07 04:58:50;;;;;;;12.13;7.57;;;2.40;97.10;;;;;;5073287;28;20046;-74
2021/05/07 05:01:15;;;;;;;11.88;7.43;;;2.40;97.10;;;;;;5043921;28;20045;-74
2021/05/07 05:03:41;;;;;;;15.85;7.97;;;2.50;97.10;;;;;;5057712;28;20056;-75
2021/05/07 05:06:07;;;;;;;13.02;7.97;;;2.50;97.10;;;;;;5015735;28;20119;-75
2021/05/07 05:08:33;;;;;;;11.27;7.53;;;2.60;97.20;;;;;;5053881;28;20036;-78
2021/05/07 05:10:59;;;;;;;9.85;7.07;;;2.70;97.20;;;;;;5059784;28;20028;-77
2021/05/07 05:13:26;;;;;;;10.18;6.93;;;2.80;97.20;;;;;;5061731;28;20147;-76
2021/05/07 05:15:56;;;;;;;9.77;6.63;;;2.80;97.20;;;;;;5055287;28;20114;-75
2021/05/07 05:18:34;;;;;;;8.18;5.80;;;2.80;97.10;;;;;;5054833;28;20111;-76
2021/05/07 05:21:02;;;;;;;9.27;5.97;;;2.90;97.10;;;;;;5057546;28;20039;-76
2021/05/07 05:23:28;;;;;;;16.48;6.93;;;2.90;97.10;;;;;;5063417;28;20109;-78
2021/05/07 05:25:56;;;;;;;11.25;6.45;;;2.90;97.00;;;;;;5058394;28;20717;-75
2021/05/07 05:28:22;;;;;;;9.88;5.78;;;2.90;97.00;;;;;;5058839;28;20125;-74
2021/05/07 05:30:48;;;;;;;8.07;5.97;;;2.90;97.00;;;;;;5063678;28;20129;-74
2021/05/07 05:33:14;;;;;;;13.25;6.07;;;2.90;97.00;;;;;;5058952;28;20115;-74
2021/05/07 05:35:40;;;;;;;8.85;6.32;;;2.90;97.00;;;;;;5039537;28;20115;-75
2021/05/07 05:38:07;;;;;;;12.65;6.97;;;2.90;97.00;;;;;;5061985;28;20039;-74
2021/05/07 05:40:33;;;;;;;6.55;5.28;;;2.90;97.00;;;;;;5062534;28;20293;-77
2021/05/07 05:42:59;;;;;;;7.53;5.38;;;2.90;97.00;;;;;;5028941;28;20094;-79
2021/05/07 05:45:25;;;;;;;9.75;5.25;;;3.00;97.00;;;;;;5028012;28;20044;-75
2021/05/07 05:48:04;;;;;;;6.72;5.05;;;3.00;97.00;;;;;;5055854;28;20045;-76
2021/05/07 05:50:31;;;;;;;8.77;5.80;;;3.10;97.00;;;;;;5069185;28;20044;-75
2021/05/07 05:52:57;;;;;;;9.52;5.35;;;3.10;97.00;;;;;;5051287;28;20047;-76
2021/05/07 05:55:23;;;;;;;10.20;5.35;;;3.20;97.10;;;;;;5061046;28;20028;-75
2021/05/07 05:57:50;;;;;;;5.75;4.70;;;3.40;97.10;;;;;;5065786;28;20040;-74
2021/05/07 06:00:17;;;;;;;7.97;3.70;;;3.50;97.00;;;;;;5061987;28;20021;-75
2021/05/07 06:02:43;;;;;;;5.93;4.25;;;3.50;97.00;;;;;;5063113;28;20037;-75
2021/05/07 06:05:10;;;;;;;5.18;3.50;;;3.60;96.90;;;;;;5059894;28;20399;-75
2021/05/07 06:07:36;;;;;;;5.57;3.70;;;3.70;96.90;;;;;;5057010;28;20032;-75
2021/05/07 06:10:03;;;;;;;4.03;3.30;;;3.90;96.80;;;;;;5063961;28;20264;-74
2021/05/07 06:12:33;;;;;;;5.18;3.13;;;4.00;96.80;;;;;;5055861;28;20098;-74
2021/05/07 06:14:58;;;;;;;6.80;3.47;;;4.10;96.80;;;;;;5056407;28;20032;-74
2021/05/07 06:17:24;;;;;;;4.22;3.17;;;4.20;96.80;;;;;;5068671;28;20089;-74
2021/05/07 06:19:50;;;;;;;3.70;3.10;;;4.40;96.80;;;;;;5056270;28;20506;-75
2021/05/07 06:22:16;;;;;;;3.38;2.53;;;4.50;96.60;;;;;;5038391;28;20037;-76
2021/05/07 06:24:42;;;;;;;3.90;2.85;;;4.60;96.60;;;;;;5057288;28;20263;-74
2021/05/07 06:27:08;;;;;;;3.17;2.40;;;4.70;96.60;;;;;;5061292;28;20040;-77
2021/05/07 06:29:34;;;;;;;4.22;2.83;;;4.80;96.50;;;;;;5025465;28;20345;-77
2021/05/07 06:32:00;;;;;;;4.15;2.60;;;4.90;96.40;;;;;;5055510;28;20479;-76
2021/05/07 06:34:26;;;;;;;4.63;1.75;;;5.10;96.40;;;;;;5072582;28;20544;-74
2021/05/07 06:36:52;;;;;;;3.33;1.80;;;5.20;96.30;;;;;;5060317;28;20186;-75
2021/05/07 06:39:18;;;;;;;2.83;1.67;;;5.30;96.30;;;;;;5052699;28;20047;-79
2021/05/07 06:41:44;;;;;;;2.35;1.38;;;5.40;95.90;;;;;;5064203;28;20509;-75
2021/05/07 06:44:09;;;;;;;2.75;1.33;;;5.50;96.10;;;;;;5046643;28;20037;-75
2021/05/07 06:46:35;;;;;;;3.38;1.40;;;5.60;95.70;;;;;;5063431;28;20040;-73
2021/05/07 06:49:01;;;;;;;3.10;1.30;;;5.70;95.20;;;;;;5059597;28;20040;-79
2021/05/07 06:51:27;;;;;;;3.25;1.42;;;5.80;95.00;;;;;;5059884;28;20380;-76
2021/05/07 06:53:54;;;;;;;2.30;1.67;;;5.80;94.80;;;;;;5037777;28;20043;-79
2021/05/07 06:56:21;;;;;;;2.13;1.70;;;5.90;94.70;;;;;;5049410;28;20040;-76
2021/05/07 06:58:48;;;;;;;2.97;1.40;;;6.00;94.70;;;;;;5029079;28;20044;-75
2021/05/07 07:01:13;;;;;;;3.58;1.35;;;6.20;94.60;;;;;;5058322;28;20033;-80
2021/05/07 07:03:40;;;;;;;2.47;1.75;;;6.30;94.20;;;;;;5065765;28;20102;-79
2021/05/07 07:06:06;;;;;;;3.30;1.52;;;6.40;94.20;;;;;;5075965;28;20109;-79
2021/05/07 07:08:31;;;;;;;3.35;1.70;;;6.50;93.90;;;;;;5055313;28;20511;-78
2021/05/07 07:10:58;;;;;;;1.95;1.50;;;6.60;93.80;;;;;;5061675;28;20433;-79
2021/05/07 07:13:25;;;;;;;3.78;1.58;;;6.70;93.80;;;;;;5057471;28;20375;-74
2021/05/07 07:15:51;;;;;;;4.80;1.65;;;6.80;93.30;;;;;;5020134;28;20044;-77
2021/05/07 07:18:23;;;;;;;3.50;1.65;;;6.90;93.20;;;;;;5043488;28;20437;-76
2021/05/07 07:20:49;;;;;;;3.20;1.77;;;7.00;93.10;;;;;;5061810;28;20028;-76
2021/05/07 07:23:16;;;;;;;2.50;1.65;;;7.10;93.00;;;;;;5061248;28;20046;-75
2021/05/07 07:25:43;;;;;;;5.10;1.80;;;7.10;93.10;;;;;;5062699;28;20481;-76
2021/05/07 07:28:09;;;;;;;4.28;1.98;;;7.20;92.80;;;;;;5059453;28;20032;-76
2021/05/07 07:30:35;;;;;;;4.38;2.25;;;7.20;92.60;;;;;;5038980;28;20044;-75
2021/05/07 07:33:01;;;;;;;3.50;2.22;;;7.20;92.30;;;;;;5059471;28;20035;-76
2021/05/07 07:35:27;;;;;;;5.38;2.45;;;7.30;92.30;;;;;;5061397;28;20032;-76
2021/05/07 07:37:53;;;;;;;2.83;2.20;;;7.40;92.30;;;;;;5040106;28;20036;-77
2021/05/07 07:40:19;;;;;;;4.55;2.33;;;7.50;92.10;;;;;;5063074;28;20484;-77
2021/05/07 07:42:45;;;;;;;4.47;2.75;;;7.50;92.40;;;;;;5066313;28;20036;-77
2021/05/07 07:45:13;;;;;;;6.22;2.65;;;7.60;92.10;;;;;;5060332;28;20368;-77
2021/05/07 07:47:39;;;;;;;7.15;2.42;;;7.70;91.60;;;;;;5058136;28;20478;-76
2021/05/07 07:50:07;;;;;;;5.85;2.60;;;7.80;91.40;;;;;;5055449;28;20530;-76
2021/05/07 07:52:34;;;;;;;3.85;2.53;;;7.90;91.60;;;;;;5042919;28;20514;-76
2021/05/07 07:55:01;;;;;;;4.57;2.85;;;8.00;91.30;;;;;;5064202;28;20607;-76
2021/05/07 07:57:27;;;;;;;3.40;2.58;;;8.00;91.20;;;;;;5044732;28;20111;-76
2021/05/07 07:59:54;;;;;;;5.50;2.45;;;8.10;91.20;;;;;;5059447;28;20037;-76
2021/05/07 08:02:20;;;;;;;3.42;2.40;;;8.20;91.20;;;;;;5044721;28;20131;-76
2021/05/07 08:04:46;;;;;;;7.72;2.38;;;8.30;91.00;;;;;;5063455;28;20115;-76
2021/05/07 08:07:12;;;;;;;5.57;2.33;;;8.30;90.80;;;;;;5061287;28;20032;-76
2021/05/07 08:09:39;;;;;;;3.72;2.10;;;8.40;90.70;;;;;;5041440;28;21616;-76
2021/05/07 08:12:08;;;;;;;4.05;2.17;;;8.60;90.00;;;;;;5044908;28;20031;-75
2021/05/07 08:14:34;;;;;;;7.40;1.92;;;8.70;90.30;;;;;;5045879;28;20043;-75
2021/05/07 08:16:59;;;;;;;6.63;2.38;;;8.90;89.70;;;;;;5037286;28;20324;-75
2021/05/07 08:19:25;;;;;;;8.25;2.20;;;9.10;89.30;;;;;;5062011;28;20498;-76
2021/05/07 08:21:55;;;;;;;5.32;2.70;;;9.30;88.20;;;;;;5065916;28;20577;-76
2021/05/07 08:24:21;;;;;;;5.78;2.10;;;9.40;86.20;;;;;;5043772;28;20078;-76
2021/05/07 08:26:47;;;;;;;3.50;1.70;;;9.40;86.20;;;;;;5063712;28;20036;-76
2021/05/07 08:29:13;;;;;;;5.78;1.95;;;9.30;85.80;;;;;;5060648;28;20117;-77
2021/05/07 08:31:39;;;;;;;6.55;2.10;;;9.10;84.80;;;;;;5031079;28;20044;-76
2021/05/07 08:34:05;;;;;;;5.95;1.98;;;8.80;85.30;;;;;;5062744;28;20028;-77
2021/05/07 08:36:31;;;;;;;4.60;1.90;;;8.80;86.40;;;;;;5027208;28;20036;-76
2021/05/07 08:38:57;;;;;;;5.93;2.22;;;8.80;86.60;;;;;;5059731;28;20040;-77
2021/05/07 08:41:22;;;;;;;3.58;2.00;;;9.10;85.10;;;;;;5055860;28;20136;-77
2021/05/07 08:43:51;;;;;;;2.50;1.60;;;9.30;85.40;;;;;;5048231;28;20545;-76
2021/05/07 08:46:18;;;;;;;5.60;2.20;;;9.50;83.50;;;;;;5060055;28;20042;-77
2021/05/07 08:48:44;;;;;;;5.38;1.58;;;9.50;83.40;;;;;;5065241;28;20051;-77
2021/05/07 08:51:10;;;;;;;4.18;1.55;;;9.60;82.40;;;;;;5065281;28;20052;-77
2021/05/07 08:53:37;;;;;;;6.40;2.00;;;9.50;82.90;;;;;;5063634;28;20048;-76
2021/05/07 08:56:07;;;;;;;5.70;2.10;;;9.40;82.50;;;;;;5044711;28;20032;-78
2021/05/07 08:58:34;;;;;;;6.28;1.73;;;9.20;81.50;;;;;;5042916;28;20052;-78
2021/05/07 09:01:00;;;;;;;4.10;2.03;;;9.10;82.10;;;;;;5025455;28;20140;-75
2021/05/07 09:03:37;;;;;;;7.25;2.40;;;9.20;82.60;;;;;;5045336;28;20032;-75
2021/05/07 09:06:19;;;;;;;3.10;1.60;;;9.50;83.00;;;;;;5060078;28;20024;-76
2021/05/07 09:08:49;;;;;;;5.30;1.90;;;9.60;80.00;;;;;;5056333;28;20364;-75
2021/05/07 09:11:16;;;;;;;4.82;2.00;;;9.40;80.90;;;;;;5062513;28;20210;-75
2021/05/07 09:13:42;;;;;;;5.25;1.75;;;9.20;80.70;;;;;;5056976;28;20052;-76
2021/05/07 09:16:09;;;;;;;4.65;1.83;;;9.20;80.70;;;;;;5065979;28;20032;-76
2021/05/07 09:18:45;;;;;;;5.88;2.80;;;9.40;81.10;;;;;;5057080;28;22569;-76
2021/05/07 09:21:12;;;;;;;3.65;1.42;;;9.60;79.70;;;;;;5058229;28;20033;-76
2021/05/07 09:23:40;;;;;;;5.80;1.58;;;9.70;78.70;;;;;;5060966;28;20032;-76
2021/05/07 09:26:06;;;;;;;3.20;1.50;;;9.70;76.90;;;;;;5056135;28;20510;-76
2021/05/07 09:28:32;;;;;;;1.88;1.58;;;9.70;76.50;;;;;;5061125;28;20032;-76
2021/05/07 09:31:12;;;;;;;5.57;2.58;;;9.80;77.50;;;;;;5058228;28;20036;-76
2021/05/07 09:33:46;;;;;;;4.22;2.20;;;10.00;75.00;;;;;;5063278;28;20439;-76
2021/05/07 09:36:26;;;;;;;2.47;1.52;;;10.20;76.80;;;;;;5063826;28;20040;-76
2021/05/07 09:38:52;;;;;;;4.60;1.83;;;10.40;74.70;;;;;;5042727;28;20040;-76
2021/05/07 09:41:19;;;;;;;3.25;1.35;;;10.40;74.10;;;;;;5063999;28;20100;-76
2021/05/07 09:43:45;;;;;;;3.58;1.80;;;10.40;72.80;;;;;;5057081;28;20067;-76
2021/05/07 09:46:11;;;;;;;9.98;1.75;;;10.30;72.90;;;;;;5059031;28;20068;-76
2021/05/07 09:48:40;;;;;;;3.10;1.45;;;10.40;73.10;;;;;;5027646;28;20037;-76
2021/05/07 09:51:07;;;;;;;3.45;1.42;;;10.50;72.10;;;;;;5055475;28;20496;-76
2021/05/07 09:53:37;;;;;;;6.22;1.58;;;10.50;72.10;;;;;;5059147;28;20040;-76
2021/05/07 09:56:19;;;;;;;3.55;1.33;;;10.40;71.50;;;;;;5061484;28;20043;-76
2021/05/07 09:58:45;;;;;;;5.95;1.55;;;10.40;71.70;;;;;;5062602;28;20127;-76
2021/05/07 10:01:11;;;;;;;3.65;1.30;;;10.50;72.60;;;;;;5058973;28;20040;-76
2021/05/07 10:03:38;;;;;;;5.40;1.50;;;10.70;72.30;;;;;;5055322;28;20433;-76
2021/05/07 10:06:05;;;;;;;4.07;1.30;;;10.70;71.90;;;;;;5065041;28;20107;-76
2021/05/07 10:08:42;;;;;;;2.30;1.20;;;10.50;70.40;;;;;;5064555;28;20044;-76
2021/05/07 10:11:09;;;;;;;3.75;1.67;;;10.50;70.20;;;;;;5063403;28;20734;-77
2021/05/07 10:13:36;;;;;;;2.42;1.75;;;10.60;71.90;;;;;;5066627;28;20037;-76
2021/05/07 10:16:03;;;;;;;2.92;1.30;;;10.80;71.30;;;;;;5060224;28;20090;-77
2021/05/07 10:18:32;;;;;;;2.30;1.60;;;11.00;71.40;;;;;;5054347;28;20454;-76
2021/05/07 10:21:00;;;;;;;2.50;1.45;;;11.10;70.30;;;;;;5058099;28;20043;-76
2021/05/07 10:23:27;;;;;;;4.88;1.13;;;11.00;70.10;;;;;;5063593;28;20040;-76
2021/05/07 10:26:01;;;;;;;2.78;1.05;;;10.80;70.10;;;;;;5037080;28;20039;-77
2021/05/07 10:28:29;;;;;;;4.00;1.20;;;10.70;70.30;;;;;;5058905;28;20483;-76
2021/05/07 10:31:08;;;;;;;2.97;0.90;;;10.80;69.50;;;;;;5051653;28;20032;-76
2021/05/07 10:33:33;;;;;;;3.08;0.98;;;10.90;68.70;;;;;;5067000;28;20040;-77
2021/05/07 10:35:59;;;;;;;2.03;0.60;;;11.10;67.10;;;;;;5044151;28;20039;-76
2021/05/07 10:38:26;;;;;;;2.08;0.90;;;11.20;64.60;;;;;;5068262;28;20474;-76
2021/05/07 10:41:11;;;;;;;1.42;0.90;;;11.30;61.90;;;;;;5039096;28;20029;-77
2021/05/07 10:43:41;;;;;;;2.83;1.00;;;11.50;62.00;;;;;;5066518;28;20036;-77
2021/05/07 10:46:20;;;;;;;3.83;1.33;;;11.70;64.30;;;;;;5061340;28;20037;-76
2021/05/07 10:48:57;;;;;;;4.00;1.10;;;11.60;65.30;;;;;;5064126;28;20048;-77
2021/05/07 10:51:25;;;;;;;2.00;0.98;;;11.40;63.70;;;;;;5065633;28;20642;-77
2021/05/07 10:54:03;;;;;;;3.50;1.35;;;11.20;64.50;;;;;;5060308;28;20040;-76
2021/05/07 10:56:35;;;;;;;2.15;1.27;;;11.20;64.40;;;;;;5061057;28;20037;-76
2021/05/07 10:59:14;;;;;;;3.08;1.20;;;11.50;63.90;;;;;;5064755;28;20115;-76
2021/05/07 11:01:40;;;;;;;2.65;0.90;;;11.70;63.60;;;;;;5064360;28;20111;-77
2021/05/07 11:04:12;;;;;;;2.92;1.10;;;11.80;64.20;;;;;;5069210;28;20237;-76
2021/05/07 11:06:42;;;;;;;1.47;0.90;;;11.60;62.60;;;;;;5065617;28;20047;-76
2021/05/07 11:09:17;;;;;;;1.80;0.95;;;11.50;63.80;;;;;;5068767;28;20042;-76
2021/05/07 11:11:44;;;;;;;2.05;0.98;;;11.60;63.10;;;;;;5065879;28;20067;-76
2021/05/07 11:14:12;;;;;;;1.50;0.80;;;11.70;62.50;;;;;;5069754;28;20043;-76
2021/05/07 11:16:44;;;;;;;3.45;1.20;;;11.90;60.70;;;;;;5063463;28;20040;-77
2021/05/07 11:19:25;;;;;;;3.10;0.93;;;12.00;61.20;;;;;;5060872;28;20063;-77
2021/05/07 11:21:52;;;;;;;1.02;0.77;;;12.10;61.20;;;;;;5065002;28;20040;-77
2021/05/07 11:24:22;;;;;;;0.80;0.65;;;12.20;60.40;;;;;;5055946;28;20224;-77
2021/05/07 11:26:48;;;;;;;1.90;0.82;;;12.30;59.50;;;;;;5059908;28;20071;-76
2021/05/07 11:29:31;;;;;;;2.00;0.90;;;12.40;57.80;;;;;;5063614;28;20028;-78
2021/05/07 11:32:17;;;;;;;3.70;1.45;;;12.50;58.80;;;;;;5059279;28;20391;-77
2021/05/07 11:34:49;;;;;;;1.60;0.90;;;12.30;56.90;;;;;;5068199;28;20040;-77
2021/05/07 11:37:15;;;;;;;2.00;1.25;;;12.10;59.10;;;;;;5060579;28;20036;-77
2021/05/07 11:39:41;;;;;;;6.70;1.27;;;12.00;58.90;;;;;;5048777;28;20451;-76
2021/05/07 11:42:08;;;;;;;2.38;0.77;;;11.80;58.30;;;;;;5058808;28;20129;-76
2021/05/07 11:44:33;;;;;;;1.10;0.80;;;11.80;59.90;;;;;;5041375;28;20037;-76
2021/05/07 11:47:06;;;;;;;2.33;0.80;;;11.90;60.40;;;;;;5062277;28;20040;-77
2021/05/07 11:49:36;;;;;;;3.83;1.10;;;12.00;60.20;;;;;;5052612;28;20927;-76
2021/05/07 11:52:03;;;;;;;2.03;1.10;;;12.10;60.00;;;;;;5068010;28;20040;-76
2021/05/07 11:54:46;;;;;;;2.03;1.10;;;12.10;60.00;;;;;;5060057;28;20063;-76
2021/05/07 11:57:20;;;;;;;3.00;1.08;;;12.10;59.70;;;;;;5062978;28;20032;-77
2021/05/07 11:59:48;;;;;;;2.38;1.02;;;12.30;62.00;;;;;;5062221;28;20048;-76
2021/05/07 12:02:30;;;;;;;2.15;0.90;;;12.50;60.80;;;;;;5059761;28;20042;-77
2021/05/07 12:04:56;;;;;;;2.90;1.23;;;12.80;60.20;;;;;;5066013;28;20036;-77
2021/05/07 12:07:33;;;;;;;1.55;1.08;;;12.80;60.50;;;;;;5060275;28;20089;-77
2021/05/07 12:10:01;;;;;;;7.32;1.40;;;12.80;60.50;;;;;;5055428;28;20036;-77
2021/05/07 12:12:28;;;;;;;3.35;1.20;;;12.80;60.00;;;;;;5064089;28;20044;-76
2021/05/07 12:15:06;;;;;;;3.40;0.98;;;12.90;60.10;;;;;;5047616;28;20070;-76
2021/05/07 12:17:43;;;;;;;2.35;1.00;;;13.00;58.60;;;;;;5045666;28;20075;-76
2021/05/07 12:20:20;;;;;;;2.10;0.90;;;13.20;57.60;;;;;;5066240;28;20040;-76
2021/05/07 12:22:52;;;;;;;3.13;1.00;;;13.40;58.40;;;;;;5063724;28;20059;-76
2021/05/07 12:25:26;;;;;;;2.27;0.93;;;13.30;57.60;;;;;;5062708;28;20042;-77
2021/05/07 12:27:54;;;;;;;2.53;0.88;;;13.00;56.00;;;;;;5062554;28;20044;-76
2021/05/07 12:30:23;;;;;;;2.13;0.75;;;12.70;56.80;;;;;;5062805;28;20044;-77
2021/05/07 12:33:00;;;;;;;4.60;0.88;;;12.70;57.90;;;;;;5060216;28;20470;-78
2021/05/07 12:35:39;;;;;;;2.42;1.10;;;13.00;58.10;;;;;;5059986;28;20036;-77
2021/05/07 12:38:23;;;;;;;2.67;1.02;;;13.10;55.90;;;;;;5055054;28;20280;-77
2021/05/07 12:40:50;;;;;;;2.85;1.02;;;12.80;53.90;;;;;;5062621;28;20051;-76
2021/05/07 12:43:16;;;;;;;3.45;1.75;;;12.50;55.90;;;;;;5063043;28;20043;-77
2021/05/07 12:45:47;;;;;;;2.42;1.00;;;12.30;56.10;;;;;;5039466;28;20037;-77
2021/05/07 12:48:14;;;;;;;4.50;0.98;;;12.30;56.40;;;;;;5057994;28;20044;-77
2021/05/07 12:50:40;;;;;;;4.90;1.73;;;12.50;57.00;;;;;;5061530;28;20040;-77
2021/05/07 12:53:19;;;;;;;1.65;1.00;;;12.60;56.00;;;;;;5062551;28;20032;-76
2021/05/07 12:55:45;;;;;;;4.55;1.40;;;12.60;55.40;;;;;;5059888;28;20074;-77
2021/05/07 12:58:13;;;;;;;1.67;1.00;;;13.00;55.60;;;;;;5066273;28;20040;-76
2021/05/07 13:00:41;;;;;;;4.00;1.30;;;13.60;54.90;;;;;;5043446;28;20146;-77